Time;durP1;ratioP1;P1;durP2;ratioP2;P2;SDS_P1;SDS_P2;PMS_P1;PMS_P2;Temp;Humidity;BMP_temperature;BMP_pressure;BME280_temperature;BME280_humidity;BME280_pressure;Samples;Min_cycle;Max_cycle;Signal;HPM_P1;HPM_P2
2023/10/19 00:00:19;;;;;;;0.10;0.10;;;10.60;99.90;;;;;;5063026;28;20769;-80
2023/10/19 00:02:46;;;;;;;0.00;0.00;;;10.60;99.90;;;;;;5069200;28;20178;-80
2023/10/19 00:05:15;;;;;;;0.10;0.10;;;10.60;99.90;;;;;;5067102;28;20193;-80
2023/10/19 00:07:41;;;;;;;0.10;0.10;;;10.70;99.90;;;;;;5060525;28;20304;-80
2023/10/19 00:10:07;;;;;;;0.10;0.10;;;10.70;99.90;;;;;;5067952;28;20204;-79
2023/10/19 00:12:32;;;;;;;0.10;0.10;;;10.70;99.90;;;;;;5069021;28;20627;-80
2023/10/19 00:14:59;;;;;;;0.10;0.10;;;10.70;99.90;;;;;;5062447;28;20200;-80
2023/10/19 00:17:27;;;;;;;0.10;0.10;;;10.70;99.90;;;;;;5068900;28;20779;-80
2023/10/19 00:20:28;;;;;;;0.10;0.10;;;10.80;99.90;;;;;;5064666;28;20556;-80
2023/10/19 00:22:44;;;;;;;0.07;0.07;;;10.80;99.90;;;;;;5068814;28;21060;-80
2023/10/19 00:25:13;;;;;;;0.10;0.10;;;10.80;99.90;;;;;;5065384;28;20193;-79
2023/10/19 00:27:39;;;;;;;0.10;0.10;;;10.90;99.90;;;;;;5067488;28;20216;-80
2023/10/19 00:30:06;;;;;;;0.10;0.10;;;10.80;99.90;;;;;;5069089;28;20631;-80
2023/10/19 00:32:33;;;;;;;0.10;0.10;;;10.80;99.90;;;;;;5071177;28;20181;-79
2023/10/19 00:35:07;;;;;;;0.10;0.10;;;10.80;99.90;;;;;;5061672;28;20209;-80
2023/10/19 00:37:41;;;;;;;0.10;0.10;;;10.80;99.90;;;;;;5064112;28;20805;-79
2023/10/19 00:40:33;;;;;;;0.10;0.10;;;10.90;99.90;;;;;;5069020;28;20176;-79
2023/10/19 00:42:56;;;;;;;0.10;0.10;;;10.90;99.90;;;;;;5070881;28;20185;-80
2023/10/19 00:45:26;;;;;;;0.10;0.10;;;11.00;99.90;;;;;;5070260;28;20248;-80
2023/10/19 00:47:53;;;;;;;0.10;0.10;;;11.10;99.90;;;;;;5063325;28;20283;-80
2023/10/19 00:50:22;;;;;;;0.10;0.10;;;11.10;99.90;;;;;;5063369;28;20192;-80
2023/10/19 00:52:51;;;;;;;0.10;0.10;;;11.20;99.90;;;;;;5063560;28;20169;-80
2023/10/19 00:55:19;;;;;;;0.10;0.10;;;11.30;99.90;;;;;;5067792;28;20239;-80
2023/10/19 00:57:48;;;;;;;0.10;0.10;;;11.50;99.90;;;;;;5065767;28;20193;-81
2023/10/19 01:00:34;;;;;;;0.10;0.10;;;11.30;99.90;;;;;;5073150;28;20201;-80
2023/10/19 01:03:00;;;;;;;0.10;0.10;;;11.30;99.90;;;;;;5072472;28;20187;-80
2023/10/19 01:05:32;;;;;;;0.10;0.10;;;11.30;99.90;;;;;;5065205;28;20181;-80
2023/10/19 01:08:01;;;;;;;0.10;0.10;;;11.20;99.90;;;;;;5066059;28;20242;-79
2023/10/19 01:10:28;;;;;;;0.10;0.10;;;11.20;99.90;;;;;;5069737;28;20284;-80
2023/10/19 01:12:53;;;;;;;0.10;0.10;;;11.20;99.90;;;;;;5073106;28;20248;-79
2023/10/19 01:17:57;;;;;;;0.10;0.10;;;11.20;99.90;;;;;;5073533;28;20196;-80
2023/10/19 01:20:42;;;;;;;0.10;0.10;;;11.30;99.90;;;;;;5073134;28;20189;-79
2023/10/19 01:28:24;;;;;;;0.10;0.10;;;11.40;99.90;;;;;;5070906;28;20194;-79
2023/10/19 01:30:52;;;;;;;0.10;0.10;;;11.40;99.90;;;;;;5072349;28;20162;-80
2023/10/19 01:33:18;;;;;;;0.10;0.10;;;11.40;99.90;;;;;;5066338;28;20316;-80
2023/10/19 01:38:33;;;;;;;0.10;0.10;;;11.30;99.90;;;;;;5070984;28;20185;-80
2023/10/19 01:41:13;;;;;;;0.10;0.10;;;11.40;99.90;;;;;;5072000;28;20173;-79
2023/10/19 01:43:40;;;;;;;0.10;0.10;;;11.30;99.90;;;;;;5069543;28;20185;-79
2023/10/19 01:46:11;;;;;;;0.10;0.10;;;11.50;99.90;;;;;;5070933;28;20173;-79
2023/10/19 01:48:38;;;;;;;0.10;0.10;;;11.60;99.90;;;;;;5070521;28;20335;-79
2023/10/19 01:51:05;;;;;;;0.10;0.10;;;11.60;99.90;;;;;;5063284;28;20227;-79
2023/10/19 01:53:36;;;;;;;0.10;0.10;;;11.60;99.90;;;;;;5069755;28;20208;-80
2023/10/19 01:56:05;;;;;;;0.10;0.10;;;11.50;99.90;;;;;;5071679;28;21103;-79
2023/10/19 01:58:36;;;;;;;0.10;0.10;;;11.40;99.90;;;;;;5070437;28;20193;-79
2023/10/19 02:01:06;;;;;;;0.10;0.10;;;11.60;99.90;;;;;;5064421;28;20190;-80
2023/10/19 02:03:32;;;;;;;0.10;0.10;;;11.60;99.90;;;;;;5062751;28;20185;-79
2023/10/19 02:06:10;;;;;;;0.10;0.10;;;11.70;99.90;;;;;;5063422;28;20648;-79
2023/10/19 02:08:38;;;;;;;0.10;0.10;;;11.60;99.90;;;;;;5063488;28;20268;-79
2023/10/19 02:11:17;;;;;;;0.40;0.40;;;11.70;99.90;;;;;;5068952;28;20205;-79
2023/10/19 02:13:46;;;;;;;0.10;0.10;;;11.50;99.90;;;;;;5069948;28;20214;-79
2023/10/19 02:16:13;;;;;;;0.10;0.10;;;11.40;99.90;;;;;;5070507;28;20205;-80
2023/10/19 02:18:38;;;;;;;0.10;0.10;;;11.50;99.90;;;;;;5067378;28;20197;-79
2023/10/19 02:21:06;;;;;;;0.63;0.63;;;11.60;99.90;;;;;;5066606;28;20192;-79
2023/10/19 02:23:35;;;;;;;0.10;0.10;;;11.60;99.90;;;;;;5066482;28;21068;-79
2023/10/19 02:26:03;;;;;;;0.10;0.10;;;11.60;99.90;;;;;;5064677;28;20187;-79
2023/10/19 02:28:31;;;;;;;0.10;0.10;;;11.50;99.90;;;;;;5070290;28;20185;-79
2023/10/19 02:30:59;;;;;;;0.10;0.10;;;11.60;99.90;;;;;;5061697;28;20208;-80
2023/10/19 02:33:26;;;;;;;0.10;0.10;;;11.60;99.90;;;;;;5069328;28;20683;-80
2023/10/19 02:35:52;;;;;;;0.10;0.10;;;11.60;99.90;;;;;;5061745;28;20581;-80
2023/10/19 02:38:18;;;;;;;0.10;0.10;;;11.50;99.90;;;;;;5070087;28;20236;-80
2023/10/19 02:40:46;;;;;;;0.10;0.10;;;11.50;99.90;;;;;;5063773;28;20619;-80
2023/10/19 02:43:11;;;;;;;0.10;0.10;;;11.60;99.90;;;;;;5068493;28;20183;-80
2023/10/19 02:45:37;;;;;;;0.10;0.10;;;11.60;99.90;;;;;;5061561;28;20531;-80
2023/10/19 02:48:04;;;;;;;0.10;0.10;;;11.70;99.90;;;;;;5063831;28;20321;-80
2023/10/19 02:50:29;;;;;;;0.10;0.10;;;11.70;99.90;;;;;;5068882;28;20177;-80
2023/10/19 02:52:55;;;;;;;0.10;0.10;;;11.80;99.90;;;;;;5066244;28;20257;-80
2023/10/19 02:55:24;;;;;;;0.10;0.10;;;11.70;99.90;;;;;;5063844;28;20676;-80
2023/10/19 02:57:50;;;;;;;0.10;0.10;;;11.70;99.90;;;;;;5060310;28;20201;-80
2023/10/19 03:00:19;;;;;;;0.10;0.10;;;11.70;99.90;;;;;;5067437;28;20196;-80
2023/10/19 03:02:46;;;;;;;0.10;0.10;;;11.70;99.90;;;;;;5070550;28;20189;-80
2023/10/19 03:05:14;;;;;;;0.10;0.10;;;11.70;99.90;;;;;;5072825;28;20275;-80
2023/10/19 03:07:43;;;;;;;0.10;0.10;;;11.60;99.90;;;;;;5073811;28;20212;-80
2023/10/19 03:10:22;;;;;;;0.10;0.10;;;11.60;99.90;;;;;;5076010;28;20200;-79
2023/10/19 03:12:49;;;;;;;0.10;0.10;;;11.80;99.90;;;;;;5072733;28;20177;-79
2023/10/19 03:15:15;;;;;;;0.10;0.10;;;11.80;99.90;;;;;;5069430;28;20296;-79
2023/10/19 03:17:41;;;;;;;0.10;0.10;;;11.80;99.90;;;;;;5065060;28;20305;-80
2023/10/19 03:20:07;;;;;;;0.10;0.10;;;11.80;99.90;;;;;;5070192;28;20185;-79
2023/10/19 03:22:34;;;;;;;0.10;0.10;;;11.80;99.90;;;;;;5066129;28;20747;-80
2023/10/19 03:25:44;;;;;;;0.10;0.10;;;11.80;99.90;;;;;;5067570;28;20673;-80
2023/10/19 03:27:45;;;;;;;0.10;0.10;;;11.90;99.90;;;;;;5067541;28;20214;-80
2023/10/19 03:30:15;;;;;;;0.10;0.10;;;12.00;99.90;;;;;;5063690;28;20283;-80
2023/10/19 03:32:41;;;;;;;0.10;0.10;;;12.00;99.90;;;;;;5064811;28;20180;-80
2023/10/19 03:35:07;;;;;;;0.10;0.10;;;12.00;99.90;;;;;;5067766;28;20200;-80
2023/10/19 03:37:36;;;;;;;0.10;0.10;;;11.90;99.90;;;;;;5070296;28;20322;-80
2023/10/19 03:40:07;;;;;;;0.10;0.10;;;12.10;99.90;;;;;;5061251;28;20189;-80
2023/10/19 03:42:33;;;;;;;0.10;0.10;;;12.20;99.90;;;;;;5068776;28;20164;-80
2023/10/19 03:45:01;;;;;;;0.10;0.10;;;12.10;99.90;;;;;;5068140;28;20534;-80
2023/10/19 03:47:38;;;;;;;0.00;0.00;;;12.10;99.90;;;;;;5060776;28;20213;-79
2023/10/19 03:50:08;;;;;;;0.10;0.10;;;12.20;99.90;;;;;;5063909;28;20189;-79
2023/10/19 03:52:37;;;;;;;0.10;0.10;;;12.10;99.90;;;;;;5067510;28;20189;-80
2023/10/19 03:55:10;;;;;;;0.10;0.10;;;12.20;99.90;;;;;;5066315;28;22108;-79
2023/10/19 03:57:41;;;;;;;0.10;0.10;;;12.20;99.90;;;;;;5060443;28;20228;-79
2023/10/19 04:00:11;;;;;;;0.10;0.10;;;12.00;99.90;;;;;;5065760;28;20296;-80
2023/10/19 04:02:38;;;;;;;0.10;0.10;;;11.90;99.90;;;;;;5067233;28;20181;-80
2023/10/19 04:05:04;;;;;;;0.10;0.10;;;11.70;99.90;;;;;;5068319;28;20185;-80
2023/10/19 04:07:33;;;;;;;0.13;0.13;;;11.60;99.90;;;;;;5061128;28;20549;-80
2023/10/19 04:12:39;;;;;;;0.10;0.10;;;11.60;99.90;;;;;;5061727;28;20180;-79
2023/10/19 04:15:15;;;;;;;0.10;0.10;;;11.60;99.90;;;;;;5081457;28;20200;-80
2023/10/19 04:17:48;;;;;;;0.10;0.10;;;11.50;99.90;;;;;;5066441;28;20244;-79
2023/10/19 04:22:42;;;;;;;0.67;0.67;;;11.60;99.90;;;;;;5061743;28;20227;-80
2023/10/19 04:25:15;;;;;;;0.10;0.10;;;11.60;99.90;;;;;;5067150;28;20213;-80
2023/10/19 04:27:42;;;;;;;0.00;0.00;;;11.60;99.90;;;;;;5058760;28;20221;-80
2023/10/19 04:30:15;;;;;;;0.10;0.10;;;11.60;99.90;;;;;;5067836;28;20223;-79
2023/10/19 04:32:45;;;;;;;0.10;0.10;;;11.70;99.90;;;;;;5068058;28;20168;-79
2023/10/19 04:35:13;;;;;;;0.10;0.10;;;11.90;99.90;;;;;;5067525;28;20212;-79
2023/10/19 04:37:42;;;;;;;0.10;0.10;;;11.90;99.90;;;;;;5062508;28;20208;-79
2023/10/19 04:40:08;;;;;;;0.10;0.10;;;11.80;99.90;;;;;;5066614;28;20177;-80
2023/10/19 04:42:34;;;;;;;0.10;0.10;;;11.80;99.90;;;;;;5067833;28;20719;-80
2023/10/19 04:45:02;;;;;;;0.10;0.10;;;11.70;99.90;;;;;;5068908;28;20185;-79
2023/10/19 04:47:28;;;;;;;0.10;0.10;;;11.80;99.90;;;;;;5071004;28;20266;-79
2023/10/19 04:49:53;;;;;;;0.10;0.10;;;11.80;99.90;;;;;;5066484;28;20193;-79
2023/10/19 04:52:19;;;;;;;0.10;0.10;;;11.90;99.90;;;;;;5071305;28;20185;-79
2023/10/19 04:54:44;;;;;;;0.10;0.10;;;12.00;99.90;;;;;;5070208;28;20223;-79
2023/10/19 04:57:10;;;;;;;0.10;0.10;;;12.00;99.90;;;;;;5067325;28;20299;-78
2023/10/19 04:59:36;;;;;;;0.10;0.10;;;12.00;99.90;;;;;;5066805;28;20181;-79
2023/10/19 05:02:01;;;;;;;0.10;0.10;;;12.10;99.90;;;;;;5070723;28;20538;-79
2023/10/19 05:04:28;;;;;;;0.00;0.00;;;12.10;99.90;;;;;;5063032;28;20215;-79
2023/10/19 05:06:53;;;;;;;0.10;0.10;;;12.00;99.90;;;;;;5066430;28;20202;-79
2023/10/19 05:09:19;;;;;;;0.10;0.10;;;12.10;99.90;;;;;;5067290;28;20197;-79
2023/10/19 05:11:45;;;;;;;0.10;0.10;;;12.20;99.90;;;;;;5068081;28;20193;-79
2023/10/19 05:14:13;;;;;;;0.07;0.07;;;12.10;99.90;;;;;;5062164;28;20275;-79
2023/10/19 05:16:42;;;;;;;0.10;0.10;;;12.20;99.90;;;;;;5068628;28;20197;-79
2023/10/19 05:19:07;;;;;;;0.10;0.10;;;12.30;99.90;;;;;;5066472;28;20661;-79
2023/10/19 05:21:34;;;;;;;0.10;0.10;;;12.40;99.90;;;;;;5066943;28;20262;-79
2023/10/19 05:24:00;;;;;;;0.00;0.00;;;12.40;99.90;;;;;;5059869;28;20190;-79
2023/10/19 05:26:26;;;;;;;0.07;0.07;;;12.30;99.90;;;;;;5061408;28;20305;-79
2023/10/19 05:28:52;;;;;;;0.10;0.10;;;12.20;99.90;;;;;;5064605;28;20189;-79
2023/10/19 05:31:18;;;;;;;0.10;0.10;;;12.10;99.90;;;;;;5064581;28;20690;-78
2023/10/19 05:33:43;;;;;;;0.10;0.10;;;12.10;99.90;;;;;;5068495;28;20206;-78
2023/10/19 05:36:09;;;;;;;0.10;0.10;;;12.20;99.90;;;;;;5067622;28;20181;-79
2023/10/19 05:38:34;;;;;;;0.10;0.10;;;12.20;99.90;;;;;;5067060;28;20184;-78
2023/10/19 05:41:00;;;;;;;0.10;0.10;;;12.20;99.90;;;;;;5067712;28;20597;-79
2023/10/19 05:43:28;;;;;;;0.10;0.10;;;12.30;99.90;;;;;;5071060;28;20641;-79
2023/10/19 05:45:53;;;;;;;0.10;0.10;;;12.30;99.90;;;;;;5069132;28;20190;-79
2023/10/19 05:48:20;;;;;;;0.10;0.10;;;12.20;99.90;;;;;;5070398;28;20211;-79
2023/10/19 05:50:46;;;;;;;0.10;0.10;;;12.30;99.90;;;;;;5064027;28;20206;-79
2023/10/19 05:53:11;;;;;;;0.10;0.10;;;12.40;99.90;;;;;;5064481;28;20659;-79
2023/10/19 05:55:39;;;;;;;0.10;0.10;;;12.60;99.90;;;;;;5066102;28;20210;-79
2023/10/19 05:58:05;;;;;;;0.10;0.10;;;12.70;99.90;;;;;;5073156;28;20221;-79
2023/10/19 06:00:30;;;;;;;0.10;0.10;;;12.80;99.90;;;;;;5065945;28;20215;-79
2023/10/19 06:02:59;;;;;;;0.10;0.10;;;12.80;99.90;;;;;;5072536;28;20184;-80
2023/10/19 06:05:25;;;;;;;0.10;0.10;;;12.60;99.90;;;;;;5066471;28;20188;-80
2023/10/19 06:07:51;;;;;;;0.10;0.10;;;12.60;99.90;;;;;;5064866;28;20208;-84
2023/10/19 06:10:18;;;;;;;0.10;0.10;;;12.70;99.90;;;;;;5068160;28;20191;-79
2023/10/19 06:12:45;;;;;;;0.10;0.10;;;12.60;99.90;;;;;;5065803;28;20185;-79
2023/10/19 06:15:12;;;;;;;0.10;0.10;;;12.70;99.90;;;;;;5068211;28;20289;-78
2023/10/19 06:17:42;;;;;;;0.10;0.10;;;12.80;99.90;;;;;;5065062;28;20220;-79
2023/10/19 06:20:33;;;;;;;0.10;0.10;;;12.80;99.90;;;;;;5068600;28;20197;-79
2023/10/19 06:23:03;;;;;;;0.10;0.10;;;12.80;99.90;;;;;;5072315;28;20188;-79
2023/10/19 06:25:29;;;;;;;0.10;0.10;;;12.80;99.90;;;;;;5064328;28;20183;-79
2023/10/19 06:27:57;;;;;;;0.10;0.10;;;12.90;99.90;;;;;;5070912;28;20271;-79
2023/10/19 06:30:23;;;;;;;0.10;0.10;;;12.80;99.90;;;;;;5071229;28;20187;-79
2023/10/19 06:32:54;;;;;;;0.10;0.10;;;12.90;99.90;;;;;;5071402;28;20252;-79
2023/10/19 06:35:21;;;;;;;0.10;0.10;;;12.90;99.90;;;;;;5069022;28;20233;-79
2023/10/19 06:37:47;;;;;;;0.20;0.20;;;12.90;99.90;;;;;;5070489;28;20206;-79
2023/10/19 06:40:16;;;;;;;0.10;0.10;;;12.90;99.90;;;;;;5066100;28;20617;-79
2023/10/19 06:42:45;;;;;;;0.10;0.10;;;13.00;99.90;;;;;;5064087;28;20620;-78
2023/10/19 06:45:13;;;;;;;0.10;0.10;;;13.10;99.90;;;;;;5066971;28;20239;-79
2023/10/19 06:47:44;;;;;;;0.10;0.10;;;13.10;99.90;;;;;;5067000;28;20211;-80
2023/10/19 06:50:11;;;;;;;0.10;0.10;;;13.00;99.90;;;;;;5070512;28;20715;-79
2023/10/19 06:52:38;;;;;;;0.10;0.10;;;13.00;99.90;;;;;;5066297;28;20276;-80
2023/10/19 06:55:25;;;;;;;0.10;0.10;;;13.10;99.90;;;;;;5067466;28;20299;-79
2023/10/19 06:57:52;;;;;;;0.10;0.10;;;12.90;99.90;;;;;;5072597;28;20200;-80
2023/10/19 07:00:19;;;;;;;0.10;0.10;;;12.90;99.90;;;;;;5071957;28;20211;-80
2023/10/19 07:02:52;;;;;;;0.10;0.10;;;13.00;99.90;;;;;;5072122;28;20250;-79
2023/10/19 07:05:21;;;;;;;0.10;0.10;;;13.10;99.90;;;;;;5062491;28;20185;-79
2023/10/19 07:07:49;;;;;;;0.10;0.10;;;13.00;99.90;;;;;;5071424;28;20205;-80
2023/10/19 07:10:15;;;;;;;0.10;0.10;;;12.80;99.90;;;;;;5064924;28;20597;-80
2023/10/19 07:12:46;;;;;;;0.10;0.10;;;12.70;99.90;;;;;;5071663;28;20182;-80
2023/10/19 07:15:15;;;;;;;0.10;0.10;;;12.70;99.90;;;;;;5069202;28;20445;-79
2023/10/19 07:17:41;;;;;;;0.10;0.10;;;12.90;99.90;;;;;;5070780;28;20267;-80
2023/10/19 07:20:08;;;;;;;0.10;0.10;;;12.70;99.90;;;;;;5070901;28;20178;-79
2023/10/19 07:22:37;;;;;;;0.00;0.00;;;12.60;99.90;;;;;;5064710;28;20185;-80
2023/10/19 07:25:08;;;;;;;0.10;0.10;;;12.60;99.90;;;;;;5069037;28;20184;-80
2023/10/19 07:27:34;;;;;;;0.10;0.10;;;12.50;99.90;;;;;;5067423;28;20213;-79
2023/10/19 07:30:06;;;;;;;0.10;0.10;;;12.70;99.90;;;;;;5070498;28;20186;-79
2023/10/19 07:32:33;;;;;;;0.10;0.10;;;12.70;99.90;;;;;;5064817;28;20188;-80
2023/10/19 07:34:59;;;;;;;0.10;0.10;;;12.70;99.90;;;;;;5069481;28;20627;-79
2023/10/19 07:37:24;;;;;;;0.10;0.10;;;12.60;99.90;;;;;;5065324;28;20225;-79
2023/10/19 07:39:56;;;;;;;0.10;0.10;;;12.70;99.90;;;;;;5067063;28;20183;-80
2023/10/19 07:42:22;;;;;;;0.10;0.10;;;12.90;99.90;;;;;;5062976;28;20217;-80
2023/10/19 07:44:48;;;;;;;0.10;0.10;;;12.80;99.90;;;;;;5068748;28;20250;-79
2023/10/19 07:47:14;;;;;;;0.10;0.10;;;13.00;99.90;;;;;;5060248;28;20215;-79
2023/10/19 07:49:40;;;;;;;0.10;0.10;;;13.10;99.90;;;;;;5065956;28;20602;-79
2023/10/19 07:52:10;;;;;;;0.10;0.10;;;13.20;99.90;;;;;;5065457;28;20211;-79
2023/10/19 07:54:36;;;;;;;0.10;0.10;;;13.30;99.90;;;;;;5064537;28;20201;-79
2023/10/19 07:57:05;;;;;;;0.07;0.07;;;13.40;99.90;;;;;;5068378;28;20207;-79
2023/10/19 07:59:31;;;;;;;0.10;0.10;;;13.50;99.90;;;;;;5061551;28;20196;-79
2023/10/19 08:01:57;;;;;;;0.10;0.10;;;13.30;99.90;;;;;;5068357;28;20191;-80
2023/10/19 08:04:25;;;;;;;0.10;0.10;;;13.20;99.90;;;;;;5061685;28;20194;-80
2023/10/19 08:06:50;;;;;;;0.10;0.10;;;13.10;99.90;;;;;;5067529;28;20200;-79
2023/10/19 08:09:22;;;;;;;0.10;0.10;;;13.10;99.90;;;;;;5062830;28;20203;-79
2023/10/19 08:11:48;;;;;;;0.10;0.10;;;13.10;99.90;;;;;;5061996;28;20700;-79
2023/10/19 08:14:14;;;;;;;0.10;0.10;;;13.00;99.90;;;;;;5067041;28;20217;-79
2023/10/19 08:16:41;;;;;;;0.10;0.10;;;13.10;99.90;;;;;;5060735;28;20620;-79
2023/10/19 08:19:07;;;;;;;0.10;0.10;;;13.20;99.90;;;;;;5067559;28;20234;-81
2023/10/19 08:21:34;;;;;;;0.10;0.10;;;13.20;99.90;;;;;;5060981;28;20183;-79
2023/10/19 08:24:04;;;;;;;0.10;0.10;;;13.10;99.90;;;;;;5066501;28;20219;-79
2023/10/19 08:26:30;;;;;;;0.10;0.10;;;13.10;99.90;;;;;;5058596;28;20224;-80
2023/10/19 08:28:55;;;;;;;0.07;0.07;;;13.40;99.90;;;;;;5063934;28;20185;-79
2023/10/19 08:31:21;;;;;;;0.10;0.10;;;13.70;99.90;;;;;;5060393;28;20193;-79
2023/10/19 08:33:47;;;;;;;0.10;0.10;;;13.80;99.90;;;;;;5064135;28;20237;-80
2023/10/19 08:36:19;;;;;;;0.10;0.10;;;13.80;99.90;;;;;;5062583;28;20204;-80
2023/10/19 08:38:46;;;;;;;0.10;0.10;;;13.30;99.90;;;;;;5079719;28;20204;-80
2023/10/19 08:41:13;;;;;;;0.10;0.10;;;13.40;99.90;;;;;;5081201;28;20178;-81
2023/10/19 08:43:39;;;;;;;0.10;0.10;;;13.40;99.90;;;;;;5081029;28;20186;-80
2023/10/19 08:46:06;;;;;;;0.10;0.10;;;13.30;99.90;;;;;;5075780;28;20316;-80
2023/10/19 08:48:36;;;;;;;0.10;0.10;;;13.30;99.90;;;;;;5069534;28;20222;-80
2023/10/19 08:51:05;;;;;;;0.10;0.10;;;13.60;99.90;;;;;;5066547;28;20207;-79
2023/10/19 08:53:32;;;;;;;0.10;0.10;;;13.50;99.90;;;;;;5064088;28;20659;-80
2023/10/19 08:55:58;;;;;;;0.10;0.10;;;13.60;99.90;;;;;;5064398;28;20188;-79
2023/10/19 08:58:24;;;;;;;0.10;0.10;;;13.60;99.90;;;;;;5061872;28;20206;-79
2023/10/19 09:00:53;;;;;;;0.10;0.10;;;13.50;99.90;;;;;;5068162;28;20184;-80
2023/10/19 09:03:21;;;;;;;0.10;0.10;;;13.40;99.90;;;;;;5064386;28;20193;-79
2023/10/19 09:05:47;;;;;;;0.10;0.10;;;13.50;99.90;;;;;;5069361;28;20185;-79
2023/10/19 09:08:21;;;;;;;0.10;0.10;;;14.00;99.90;;;;;;5060184;28;20204;-79
2023/10/19 09:10:49;;;;;;;0.10;0.10;;;14.10;99.90;;;;;;5066762;28;20241;-79
2023/10/19 09:13:18;;;;;;;0.10;0.10;;;14.30;99.90;;;;;;5064756;28;20690;-79
2023/10/19 09:15:44;;;;;;;0.10;0.10;;;14.50;99.90;;;;;;5063340;28;20180;-79
2023/10/19 09:18:20;;;;;;;0.10;0.10;;;14.60;99.90;;;;;;5059599;28;20221;-79
2023/10/19 09:23:34;;;;;;;0.10;0.10;;;14.60;99.90;;;;;;5071930;28;20399;-78
2023/10/19 09:26:05;;;;;;;0.10;0.10;;;14.40;99.90;;;;;;5070414;28;20262;-79
2023/10/19 09:28:33;;;;;;;0.10;0.10;;;14.20;99.90;;;;;;5072899;28;20211;-79
2023/10/19 09:31:00;;;;;;;0.20;0.20;;;14.10;99.90;;;;;;5069518;28;20176;-79
2023/10/19 09:33:27;;;;;;;0.10;0.10;;;13.90;99.90;;;;;;5066308;28;20273;-79
2023/10/19 09:35:54;;;;;;;0.10;0.10;;;14.00;99.90;;;;;;5063943;28;20216;-79
2023/10/19 09:38:24;;;;;;;0.10;0.10;;;14.00;99.90;;;;;;5066867;28;20211;-79
2023/10/19 09:40:51;;;;;;;0.10;0.10;;;14.00;99.90;;;;;;5070722;28;20575;-79
2023/10/19 09:43:24;;;;;;;0.30;0.30;;;13.70;99.90;;;;;;5069773;28;20187;-79
2023/10/19 09:45:54;;;;;;;0.10;0.10;;;13.70;99.90;;;;;;5062143;28;20199;-79
2023/10/19 09:48:19;;;;;;;0.10;0.10;;;14.00;99.90;;;;;;5069898;28;20207;-79
2023/10/19 09:50:55;;;;;;;0.10;0.10;;;14.10;99.90;;;;;;5067044;28;20600;-79
2023/10/19 09:53:29;;;;;;;0.10;0.10;;;14.10;99.90;;;;;;5069408;28;20183;-78
2023/10/19 09:55:57;;;;;;;0.10;0.10;;;14.20;99.90;;;;;;5070493;28;20192;-79
2023/10/19 09:58:29;;;;;;;0.10;0.10;;;14.40;99.90;;;;;;5069771;28;20231;-79
2023/10/19 10:00:57;;;;;;;0.10;0.10;;;14.30;99.90;;;;;;5069445;28;21112;-79
2023/10/19 10:03:51;;;;;;;0.10;0.10;;;14.50;99.90;;;;;;5068335;28;20306;-79
2023/10/19 10:06:27;;;;;;;0.10;0.10;;;14.10;99.90;;;;;;5070060;28;20193;-79
2023/10/19 10:08:53;;;;;;;0.10;0.10;;;14.10;99.90;;;;;;5071219;28;20190;-79
2023/10/19 10:11:22;;;;;;;0.10;0.10;;;14.20;99.90;;;;;;5064824;28;20211;-79
2023/10/19 10:13:52;;;;;;;0.10;0.10;;;14.50;99.90;;;;;;5069346;28;20636;-80
2023/10/19 10:16:22;;;;;;;0.10;0.10;;;14.60;99.90;;;;;;5062202;28;20640;-80
2023/10/19 10:18:50;;;;;;;0.10;0.10;;;14.50;99.90;;;;;;5068504;28;20272;-79
2023/10/19 10:21:17;;;;;;;0.10;0.10;;;14.80;99.90;;;;;;5064206;28;20644;-79
2023/10/19 10:23:52;;;;;;;0.10;0.10;;;14.90;99.90;;;;;;5059521;28;20191;-79
2023/10/19 10:26:19;;;;;;;0.10;0.10;;;15.00;99.90;;;;;;5069960;28;20211;-80
2023/10/19 10:29:06;;;;;;;0.10;0.10;;;14.80;99.90;;;;;;5070993;28;20672;-80
2023/10/19 10:31:36;;;;;;;0.10;0.10;;;15.00;99.90;;;;;;5070091;28;20199;-79
2023/10/19 10:34:02;;;;;;;0.10;0.10;;;15.10;99.90;;;;;;5073655;28;20208;-80
2023/10/19 10:37:05;;;;;;;0.10;0.10;;;15.20;99.90;;;;;;5068265;28;20548;-79
2023/10/19 10:39:31;;;;;;;0.10;0.10;;;15.40;99.90;;;;;;5073975;28;20180;-79
2023/10/19 10:42:02;;;;;;;0.10;0.10;;;15.50;99.90;;;;;;5071317;28;20214;-80
2023/10/19 10:44:42;;;;;;;0.10;0.10;;;15.50;99.90;;;;;;5073117;28;20215;-80
2023/10/19 10:47:09;;;;;;;0.10;0.10;;;15.80;99.90;;;;;;5070806;28;20215;-79
2023/10/19 10:49:57;;;;;;;0.10;0.10;;;15.90;99.90;;;;;;5074014;28;20188;-80
2023/10/19 10:52:28;;;;;;;0.10;0.10;;;15.70;99.90;;;;;;5070143;28;21089;-80
2023/10/19 10:54:55;;;;;;;0.10;0.10;;;15.70;99.90;;;;;;5073890;28;20201;-80
2023/10/19 10:57:20;;;;;;;0.10;0.10;;;15.40;99.90;;;;;;5066891;28;20201;-80
2023/10/19 10:59:46;;;;;;;0.10;0.10;;;15.20;99.90;;;;;;5069080;28;20200;-79
2023/10/19 11:02:21;;;;;;;0.10;0.10;;;15.10;99.90;;;;;;5074323;28;20544;-80
2023/10/19 11:04:47;;;;;;;0.10;0.10;;;15.00;99.90;;;;;;5074152;28;20267;-79
2023/10/19 11:07:20;;;;;;;0.10;0.10;;;14.80;99.90;;;;;;5070509;28;20307;-80
2023/10/19 11:09:48;;;;;;;0.10;0.10;;;15.00;99.90;;;;;;5073373;28;20188;-80
2023/10/19 11:12:19;;;;;;;0.10;0.10;;;15.00;99.90;;;;;;5071913;28;20577;-80
2023/10/19 11:14:59;;;;;;;0.10;0.10;;;15.10;99.90;;;;;;5071680;28;20223;-79
2023/10/19 11:17:30;;;;;;;0.10;0.10;;;15.20;99.90;;;;;;5069638;28;20672;-80
2023/10/19 11:19:59;;;;;;;0.10;0.10;;;15.30;99.90;;;;;;5069151;28;20188;-80
2023/10/19 11:22:26;;;;;;;0.10;0.10;;;15.40;99.90;;;;;;5068416;28;20296;-80
2023/10/19 11:24:53;;;;;;;0.10;0.10;;;15.40;99.90;;;;;;5065059;28;20238;-80
2023/10/19 11:27:37;;;;;;;0.10;0.10;;;15.60;99.90;;;;;;5063288;28;20211;-80
2023/10/19 11:30:04;;;;;;;0.10;0.10;;;15.70;99.90;;;;;;5069911;28;20184;-80
2023/10/19 11:32:39;;;;;;;0.10;0.10;;;15.90;99.90;;;;;;5065609;28;20181;-80
2023/10/19 11:35:09;;;;;;;0.10;0.10;;;15.70;99.90;;;;;;5064884;28;20201;-80
2023/10/19 11:37:48;;;;;;;0.10;0.10;;;15.20;99.90;;;;;;5069858;28;20932;-80
2023/10/19 11:40:13;;;;;;;0.10;0.10;;;15.10;99.90;;;;;;5070359;28;20222;-80
2023/10/19 11:42:40;;;;;;;0.10;0.10;;;15.20;99.90;;;;;;5070027;28;20181;-80
2023/10/19 11:45:06;;;;;;;0.10;0.10;;;15.10;99.90;;;;;;5070559;28;20641;-80
2023/10/19 11:47:31;;;;;;;0.10;0.10;;;15.20;99.90;;;;;;5070019;28;20201;-80
2023/10/19 11:49:57;;;;;;;0.10;0.10;;;15.20;99.90;;;;;;5060406;28;20199;-80
2023/10/19 11:52:23;;;;;;;0.10;0.10;;;15.40;99.90;;;;;;5069565;28;20200;-80
2023/10/19 11:54:48;;;;;;;0.10;0.10;;;15.40;99.90;;;;;;5069530;28;20205;-80
2023/10/19 11:57:14;;;;;;;0.10;0.10;;;15.70;99.90;;;;;;5068673;28;20208;-80
2023/10/19 11:59:40;;;;;;;0.10;0.10;;;15.70;99.90;;;;;;5064980;28;20196;-80
2023/10/19 12:02:06;;;;;;;1.10;1.10;;;15.70;99.90;;;;;;5067955;28;20211;-80
2023/10/19 12:04:36;;;;;;;0.10;0.10;;;15.70;99.90;;;;;;5067292;28;20185;-79
2023/10/19 12:07:02;;;;;;;0.10;0.10;;;15.60;99.90;;;;;;5080703;28;20204;-80
2023/10/19 12:09:28;;;;;;;0.10;0.10;;;15.80;99.90;;;;;;5064111;28;20540;-79
2023/10/19 12:11:54;;;;;;;0.10;0.10;;;15.80;99.90;;;;;;5065165;28;20223;-80
2023/10/19 12:14:21;;;;;;;0.10;0.10;;;15.70;99.90;;;;;;5067117;28;20211;-81
2023/10/19 12:16:47;;;;;;;0.10;0.10;;;15.70;99.90;;;;;;5063407;28;20573;-80
2023/10/19 12:19:14;;;;;;;0.10;0.10;;;15.70;99.90;;;;;;5067145;28;20196;-79
2023/10/19 12:21:41;;;;;;;0.10;0.10;;;15.80;99.90;;;;;;5063412;28;20615;-79
2023/10/19 12:24:07;;;;;;;0.10;0.10;;;15.70;99.90;;;;;;5066336;28;20188;-79
2023/10/19 12:26:33;;;;;;;0.10;0.10;;;15.70;99.90;;;;;;5058165;28;20212;-79
2023/10/19 12:28:59;;;;;;;0.10;0.10;;;15.60;99.90;;;;;;5060277;28;20238;-79
2023/10/19 12:31:25;;;;;;;0.10;0.10;;;15.60;99.90;;;;;;5058202;28;20288;-80
2023/10/19 12:33:51;;;;;;;0.10;0.10;;;15.50;99.90;;;;;;5059983;28;20208;-81
2023/10/19 12:38:49;;;;;;;0.10;0.10;;;15.50;99.90;;;;;;5068830;28;20177;-79
2023/10/19 12:41:14;;;;;;;0.10;0.10;;;15.80;99.90;;;;;;5066765;28;20199;-79
2023/10/19 12:43:40;;;;;;;0.10;0.10;;;15.90;99.90;;;;;;5064111;28;20185;-79
2023/10/19 12:46:08;;;;;;;0.10;0.10;;;15.90;99.90;;;;;;5061398;28;20189;-79
2023/10/19 12:48:34;;;;;;;0.10;0.10;;;15.80;99.90;;;;;;5063236;28;20197;-79
2023/10/19 12:51:04;;;;;;;0.10;0.10;;;15.70;99.90;;;;;;5062415;28;20188;-80
2023/10/19 12:53:30;;;;;;;0.10;0.10;;;15.90;99.90;;;;;;5066243;28;20200;-79
2023/10/19 12:55:55;;;;;;;0.10;0.10;;;15.80;99.90;;;;;;5064511;28;20254;-79
2023/10/19 12:58:21;;;;;;;0.10;0.10;;;15.90;99.90;;;;;;5067699;28;20203;-79
2023/10/19 13:00:48;;;;;;;0.10;0.10;;;16.00;99.90;;;;;;5065352;28;20181;-79
2023/10/19 13:03:15;;;;;;;0.10;0.10;;;16.10;99.90;;;;;;5064717;28;20188;-79
2023/10/19 13:05:42;;;;;;;0.10;0.10;;;16.20;99.90;;;;;;5064040;28;20185;-79
2023/10/19 13:08:08;;;;;;;0.10;0.10;;;16.10;99.90;;;;;;5064663;28;20220;-79
2023/10/19 13:10:36;;;;;;;0.10;0.10;;;16.10;99.90;;;;;;5064860;28;20800;-79
2023/10/19 13:13:05;;;;;;;0.10;0.10;;;16.00;99.90;;;;;;5072623;28;20201;-79
2023/10/19 13:15:35;;;;;;;0.10;0.10;;;16.20;99.90;;;;;;5066559;28;20766;-79